createdAt,value
2023-04-20T00:02:21.636Z,14.10
2023-04-20T00:04:50.571Z,13.70
2023-04-20T00:07:19.528Z,14.88
2023-04-20T00:09:49.377Z,13.85
2023-04-20T00:12:17.862Z,13.75
2023-04-20T00:14:46.358Z,13.35
2023-04-20T00:17:14.881Z,14.45
2023-04-20T00:19:43.504Z,13.63
2023-04-20T00:22:12.156Z,12.90
2023-04-20T00:24:40.727Z,13.52
2023-04-20T00:27:11.828Z,13.07
2023-04-20T00:29:40.682Z,13.23
2023-04-20T00:32:09.332Z,13.00
2023-04-20T00:34:37.819Z,13.18
2023-04-20T00:37:06.340Z,14.25
2023-04-20T00:39:34.865Z,13.73
2023-04-20T00:42:07.999Z,14.82
2023-04-20T00:44:38.017Z,12.98
2023-04-20T00:47:06.429Z,13.07
2023-04-20T00:49:35.196Z,12.73
2023-04-20T00:52:03.640Z,13.10
2023-04-20T00:54:33.653Z,13.18
2023-04-20T00:57:02.552Z,13.07
2023-04-20T00:59:31.060Z,14.45
2023-04-20T01:02:01.229Z,13.60
2023-04-20T01:04:30.793Z,13.82
2023-04-20T01:07:00.131Z,13.23
2023-04-20T01:09:28.648Z,13.90
2023-04-20T01:11:57.127Z,14.52
2023-04-20T01:14:25.669Z,13.35
2023-04-20T01:16:54.144Z,14.40
2023-04-20T01:19:23.968Z,14.82
2023-04-20T01:21:52.478Z,14.77
2023-04-20T01:24:22.325Z,16.10
2023-04-20T01:26:50.835Z,15.68
2023-04-20T01:29:19.450Z,15.95
2023-04-20T01:31:48.254Z,15.85
2023-04-20T01:34:17.658Z,17.02
2023-04-20T01:36:46.933Z,16.00
2023-04-20T01:39:15.516Z,16.85
2023-04-20T01:41:45.936Z,16.20
2023-04-20T01:44:14.347Z,16.75
2023-04-20T01:46:42.885Z,16.60
2023-04-20T01:49:11.748Z,16.90
2023-04-20T01:51:40.129Z,17.35
2023-04-20T01:54:08.514Z,17.35
2023-04-20T01:56:37.408Z,18.05
2023-04-20T01:59:07.195Z,18.73
2023-04-20T02:01:35.792Z,19.35
2023-04-20T02:04:04.421Z,18.63
2023-04-20T02:06:33.198Z,18.70
2023-04-20T02:09:03.893Z,19.15
2023-04-20T02:11:32.346Z,20.00
2023-04-20T02:14:00.885Z,19.08
2023-04-20T02:16:31.646Z,18.98
2023-04-20T02:19:01.163Z,19.73
2023-04-20T02:21:29.579Z,19.60
2023-04-20T02:23:58.124Z,18.95
2023-04-20T02:26:28.528Z,17.60
2023-04-20T02:28:56.990Z,19.75
2023-04-20T02:31:25.502Z,18.77
2023-04-20T02:33:55.482Z,19.92
2023-04-20T02:36:23.956Z,19.05
2023-04-20T02:38:52.367Z,20.10
2023-04-20T02:41:21.206Z,19.60
2023-04-20T02:43:50.028Z,19.85
2023-04-20T02:46:19.279Z,20.23
2023-04-20T02:48:47.914Z,19.50
2023-04-20T02:51:18.146Z,18.80
2023-04-20T02:53:48.008Z,19.35
2023-04-20T02:56:29.460Z,19.75
2023-04-20T02:59:02.540Z,21.25
2023-04-20T03:01:38.137Z,21.88
2023-04-20T03:04:27.838Z,21.92
2023-04-20T03:07:07.815Z,23.08
2023-04-20T03:09:38.530Z,22.50
2023-04-20T03:12:19.948Z,23.33
2023-04-20T03:15:07.295Z,22.42
2023-04-20T03:17:57.914Z,23.50
2023-04-20T03:20:27.245Z,24.17
2023-04-20T03:22:57.078Z,23.63
2023-04-20T03:25:27.198Z,24.17
2023-04-20T03:28:00.426Z,24.13
2023-04-20T03:30:29.127Z,24.98
2023-04-20T03:33:05.807Z,23.75
2023-04-20T03:35:34.480Z,23.73
2023-04-20T03:38:04.396Z,24.40
2023-04-20T03:40:32.937Z,24.52
2023-04-20T03:43:01.430Z,24.23
2023-04-20T03:45:30.319Z,23.75
2023-04-20T03:47:58.946Z,25.02
2023-04-20T03:50:28.513Z,25.02
2023-04-20T03:52:57.040Z,25.58
2023-04-20T03:55:27.095Z,25.67
2023-04-20T03:58:01.250Z,25.42
2023-04-20T04:00:38.973Z,25.23
2023-04-20T04:03:12.321Z,25.10
2023-04-20T04:05:42.007Z,27.05
2023-04-20T04:08:10.592Z,26.73
2023-04-20T04:10:40.699Z,25.38
2023-04-20T04:13:09.172Z,26.13
2023-04-20T04:15:38.442Z,27.42
2023-04-20T04:18:12.065Z,28.48
2023-04-20T04:20:42.256Z,26.80
2023-04-20T04:23:14.772Z,26.08
2023-04-20T04:25:49.169Z,28.42
2023-04-20T04:28:22.848Z,26.15
2023-04-20T04:31:05.875Z,27.73
2023-04-20T04:33:36.073Z,28.63
2023-04-20T04:36:07.129Z,28.15
2023-04-20T04:38:37.128Z,29.67
2023-04-20T04:41:07.264Z,29.73
2023-04-20T04:43:37.460Z,30.23
2023-04-20T04:46:15.587Z,28.50
2023-04-20T04:48:44.039Z,30.83
2023-04-20T04:51:12.878Z,31.27
2023-04-20T04:53:45.088Z,33.15
2023-04-20T04:56:15.009Z,31.52
2023-04-20T04:58:43.400Z,32.15
2023-04-20T05:01:11.891Z,31.30
2023-04-20T05:03:40.584Z,32.15
2023-04-20T05:06:09.253Z,31.80
2023-04-20T05:08:37.973Z,31.42
2023-04-20T05:11:06.464Z,32.05
2023-04-20T05:13:36.602Z,32.20
2023-04-20T05:16:05.190Z,31.75
2023-04-20T05:18:33.622Z,34.33
2023-04-20T05:21:02.127Z,34.13
2023-04-20T05:23:30.595Z,36.58
2023-04-20T05:25:59.175Z,33.22
2023-04-20T05:28:27.922Z,37.55
2023-04-20T05:30:57.771Z,31.40
2023-04-20T05:33:26.672Z,32.10
2023-04-20T05:35:57.893Z,30.83
2023-04-20T05:38:26.517Z,29.75
2023-04-20T05:40:55.000Z,29.33
2023-04-20T05:43:23.617Z,31.30
2023-04-20T05:45:52.578Z,29.73
2023-04-20T05:48:22.516Z,29.75
2023-04-20T05:50:51.034Z,29.20
2023-04-20T05:53:19.486Z,28.23
2023-04-20T05:55:47.920Z,28.35
2023-04-20T05:58:16.460Z,28.77
2023-04-20T06:03:36.390Z,28.55
2023-04-20T06:06:05.107Z,26.92
2023-04-20T06:08:33.568Z,28.92
2023-04-20T06:11:02.559Z,28.15
2023-04-20T06:13:31.009Z,26.20
2023-04-20T06:15:59.457Z,26.20
2023-04-20T06:18:27.993Z,26.10
2023-04-20T06:21:01.132Z,27.58
2023-04-20T06:23:29.672Z,26.10
2023-04-20T06:25:58.230Z,26.45
2023-04-20T06:28:26.752Z,25.42
2023-04-20T06:30:57.629Z,25.45
2023-04-20T06:33:26.140Z,25.38
2023-04-20T06:35:56.438Z,25.67
2023-04-20T06:38:26.490Z,25.27
2023-04-20T06:40:57.477Z,25.08
2023-04-20T06:43:26.363Z,26.20
2023-04-20T06:45:55.173Z,25.50
2023-04-20T06:48:32.170Z,25.13
2023-04-20T06:51:01.794Z,25.85
2023-04-20T06:53:31.796Z,26.02
2023-04-20T06:56:00.341Z,26.10
2023-04-20T06:58:28.726Z,29.83
2023-04-20T07:00:57.177Z,33.28
2023-04-20T07:03:27.694Z,26.00
2023-04-20T07:05:56.250Z,25.23
2023-04-20T07:08:24.653Z,23.83
2023-04-20T07:10:54.450Z,22.15
2023-04-20T07:13:22.886Z,21.58
2023-04-20T07:15:51.369Z,21.52
2023-04-20T07:18:22.075Z,22.23
2023-04-20T07:20:50.422Z,24.05
2023-04-20T07:23:19.072Z,23.08
2023-04-20T07:25:47.619Z,22.80
2023-04-20T07:28:17.360Z,23.80
2023-04-20T07:30:45.867Z,24.50
2023-04-20T07:33:14.486Z,23.55
2023-04-20T07:35:42.996Z,23.58
2023-04-20T07:38:11.391Z,23.60
2023-04-20T07:40:39.794Z,23.45
2023-04-20T07:43:08.258Z,24.48
2023-04-20T07:45:41.204Z,22.50
2023-04-20T07:48:12.237Z,24.77
2023-04-20T07:50:40.855Z,24.73
2023-04-20T07:53:09.542Z,24.17
2023-04-20T07:55:37.929Z,25.27
2023-04-20T07:58:08.517Z,23.70
2023-04-20T08:00:38.481Z,22.23
2023-04-20T08:03:07.060Z,25.50
2023-04-20T08:05:35.979Z,23.42
2023-04-20T08:08:04.528Z,21.23
2023-04-20T08:10:33.068Z,22.25
2023-04-20T08:13:01.471Z,23.15
2023-04-20T08:15:30.016Z,21.75
2023-04-20T08:17:59.889Z,23.42
2023-04-20T08:20:28.419Z,24.05
2023-04-20T08:22:56.872Z,23.77
2023-04-20T08:25:26.148Z,24.08
2023-04-20T08:27:56.075Z,21.95
2023-04-20T08:30:24.642Z,21.95
2023-04-20T08:32:53.035Z,22.48
2023-04-20T08:35:23.151Z,23.40
2023-04-20T08:37:51.753Z,22.10
2023-04-20T08:40:20.952Z,23.60
2023-04-20T08:42:50.723Z,23.40
2023-04-20T08:45:19.473Z,22.70
2023-04-20T08:47:48.559Z,23.67
2023-04-20T08:50:17.591Z,22.17
2023-04-20T08:52:47.453Z,24.35
2023-04-20T08:55:17.477Z,23.52
2023-04-20T08:57:46.126Z,23.45
2023-04-20T09:00:15.154Z,23.38
2023-04-20T09:02:51.756Z,24.67
2023-04-20T09:05:27.171Z,23.80
2023-04-20T09:07:58.185Z,24.55
2023-04-20T09:10:26.970Z,28.77
2023-04-20T09:12:55.481Z,26.58
2023-04-20T09:15:27.702Z,26.50
2023-04-20T09:17:56.344Z,28.17
2023-04-20T09:20:31.668Z,29.77
2023-04-20T09:23:33.259Z,29.17
2023-04-20T09:26:03.032Z,28.30
2023-04-20T09:28:38.918Z,27.30
2023-04-20T09:31:07.428Z,28.08
2023-04-20T09:33:36.764Z,30.25
2023-04-20T09:36:06.311Z,29.02
2023-04-20T09:38:34.733Z,26.52
2023-04-20T09:41:04.724Z,25.60
2023-04-20T09:43:33.512Z,25.02
2023-04-20T09:46:02.135Z,26.80
2023-04-20T09:48:32.159Z,24.85
2023-04-20T09:51:03.631Z,26.02
2023-04-20T09:53:32.621Z,25.40
2023-04-20T09:56:03.216Z,25.58
2023-04-20T09:58:34.204Z,22.58
2023-04-20T10:01:03.324Z,22.52
2023-04-20T10:03:31.944Z,22.33
2023-04-20T10:06:00.680Z,23.58
2023-04-20T10:08:29.204Z,22.63
2023-04-20T10:10:57.640Z,21.38
2023-04-20T10:13:35.252Z,19.90
2023-04-20T10:16:05.242Z,18.15
2023-04-20T10:18:33.816Z,17.27
2023-04-20T10:21:06.621Z,16.88
2023-04-20T10:23:37.653Z,18.15
2023-04-20T10:26:06.502Z,18.23
2023-04-20T10:28:41.556Z,18.80
2023-04-20T10:31:13.712Z,18.52
2023-04-20T10:33:55.499Z,17.52
2023-04-20T10:36:25.327Z,16.95
2023-04-20T10:38:54.798Z,18.33
2023-04-20T10:41:23.471Z,17.35
2023-04-20T10:43:52.135Z,18.88
2023-04-20T10:46:22.705Z,18.13
2023-04-20T10:48:52.460Z,15.90
2023-04-20T10:51:21.155Z,18.67
2023-04-20T10:54:06.091Z,16.38
2023-04-20T10:56:41.858Z,17.83
2023-04-20T10:59:10.472Z,17.52
2023-04-20T11:01:41.099Z,17.50
2023-04-20T11:04:10.548Z,17.25
2023-04-20T11:06:39.539Z,18.52
2023-04-20T11:09:19.199Z,17.58
2023-04-20T11:11:48.127Z,17.38
2023-04-20T11:14:16.655Z,19.10
2023-04-20T11:16:53.458Z,18.67
2023-04-20T11:19:26.289Z,18.92
2023-04-20T11:21:54.873Z,18.65
2023-04-20T11:24:23.889Z,19.02
2023-04-20T11:26:55.238Z,19.20
2023-04-20T11:29:30.848Z,19.15
2023-04-20T11:32:01.279Z,19.50
2023-04-20T11:34:30.099Z,18.65
2023-04-20T11:37:00.429Z,19.25
2023-04-20T11:39:29.746Z,18.58
2023-04-20T11:41:58.493Z,17.73
2023-04-20T11:44:27.304Z,18.13
2023-04-20T11:46:57.348Z,18.27
2023-04-20T11:49:27.786Z,19.73
2023-04-20T11:51:56.432Z,18.27
2023-04-20T11:54:28.364Z,17.90
2023-04-20T11:56:56.898Z,17.73
2023-04-20T11:59:25.422Z,18.02
2023-04-20T12:01:53.908Z,17.75
2023-04-20T12:04:22.906Z,18.65
2023-04-20T12:06:53.194Z,17.85
2023-04-20T12:09:21.640Z,17.65
2023-04-20T12:11:50.101Z,18.67
2023-04-20T12:14:20.980Z,17.77
2023-04-20T12:16:49.579Z,18.45
2023-04-20T12:19:18.490Z,18.05
2023-04-20T12:21:48.029Z,17.90
2023-04-20T12:24:17.892Z,17.27
2023-04-20T12:26:47.016Z,17.98
2023-04-20T12:29:16.365Z,18.08
2023-04-20T12:31:45.207Z,18.33
2023-04-20T12:34:13.903Z,18.48
2023-04-20T12:36:42.443Z,19.58
2023-04-20T12:39:11.874Z,18.35
2023-04-20T12:41:42.627Z,18.60
2023-04-20T12:44:13.179Z,17.45
2023-04-20T12:46:42.309Z,18.10
2023-04-20T12:49:10.955Z,17.75
2023-04-20T12:51:39.470Z,18.25
2023-04-20T12:54:08.180Z,18.40
2023-04-20T12:56:36.770Z,18.35
2023-04-20T12:59:06.726Z,21.85
2023-04-20T13:01:35.235Z,18.20
2023-04-20T13:04:03.902Z,17.52
2023-04-20T13:06:32.769Z,17.25
2023-04-20T13:09:02.355Z,15.32
2023-04-20T13:11:31.332Z,15.77
2023-04-20T13:14:00.885Z,16.77
2023-04-20T13:16:30.735Z,16.30
2023-04-20T13:18:59.251Z,16.90
2023-04-20T13:21:27.732Z,15.85
2023-04-20T13:23:56.977Z,16.20
2023-04-20T13:26:26.113Z,16.63
2023-04-20T13:28:57.524Z,16.25
2023-04-20T13:31:26.120Z,17.08
2023-04-20T13:33:56.130Z,17.58
2023-04-20T13:36:25.495Z,16.58
2023-04-20T13:38:55.736Z,17.05
2023-04-20T13:41:24.758Z,16.15
2023-04-20T13:43:53.182Z,16.50
2023-04-20T13:46:24.380Z,15.02
2023-04-20T13:48:53.189Z,15.32
2023-04-20T13:51:22.966Z,15.90
2023-04-20T13:53:51.440Z,15.57
2023-04-20T13:56:19.924Z,15.75
2023-04-20T13:58:48.530Z,14.65
2023-04-20T14:01:17.463Z,14.30
2023-04-20T14:03:46.277Z,13.75
2023-04-20T14:06:14.926Z,13.00
2023-04-20T14:08:44.839Z,13.73
2023-04-20T14:11:13.475Z,13.45
2023-04-20T14:13:42.268Z,14.27
2023-04-20T14:16:11.382Z,13.40
2023-04-20T14:18:40.222Z,12.90
2023-04-20T14:21:08.748Z,12.95
2023-04-20T14:23:37.216Z,13.57
2023-04-20T14:26:07.341Z,13.55
2023-04-20T14:28:35.904Z,14.15
2023-04-20T14:31:04.790Z,13.10
2023-04-20T14:33:33.262Z,13.07
2023-04-20T14:36:01.817Z,13.38
2023-04-20T14:38:30.433Z,12.60
2023-04-20T14:40:58.947Z,11.57
2023-04-20T14:43:28.841Z,11.77
2023-04-20T14:45:58.767Z,10.88
2023-04-20T14:48:29.782Z,10.85
2023-04-20T14:50:58.350Z,10.15
2023-04-20T14:53:26.767Z,10.88
2023-04-20T14:55:57.604Z,16.20
2023-04-20T14:58:26.006Z,9.63
2023-04-20T15:00:56.304Z,8.90
2023-04-20T15:03:27.310Z,9.18
2023-04-20T15:05:59.405Z,9.80
2023-04-20T15:08:28.011Z,9.23
2023-04-20T15:10:56.961Z,10.45
2023-04-20T15:13:25.468Z,10.63
2023-04-20T15:15:55.301Z,9.57
2023-04-20T15:18:25.434Z,8.75
2023-04-20T15:20:54.220Z,9.20
2023-04-20T15:23:23.023Z,9.50
2023-04-20T15:25:51.672Z,8.77
2023-04-20T15:28:20.146Z,8.13
2023-04-20T15:30:48.618Z,8.02
2023-04-20T15:33:17.450Z,8.95
2023-04-20T15:35:47.902Z,9.18
2023-04-20T15:38:16.433Z,8.90
2023-04-20T15:40:44.906Z,8.77
2023-04-20T15:43:13.398Z,9.18
2023-04-20T15:45:44.092Z,7.80
2023-04-20T15:48:13.223Z,9.07
2023-04-20T15:50:41.756Z,9.05
2023-04-20T15:53:12.260Z,8.77
2023-04-20T15:55:40.899Z,8.07
2023-04-20T15:58:10.049Z,8.85
2023-04-20T16:00:38.542Z,8.85
2023-04-20T16:03:07.246Z,8.40
2023-04-20T16:05:36.079Z,9.00
2023-04-20T16:08:05.457Z,9.43
2023-04-20T16:10:35.410Z,8.48
2023-04-20T16:13:04.862Z,9.30
2023-04-20T16:15:33.555Z,9.35
2023-04-20T16:18:04.767Z,8.98
2023-04-20T16:20:33.285Z,8.35
2023-04-20T16:23:02.232Z,8.63
2023-04-20T16:25:32.421Z,9.27
2023-04-20T16:28:03.437Z,9.85
2023-04-20T16:30:33.316Z,8.93
2023-04-20T16:33:02.208Z,9.32
2023-04-20T16:35:30.861Z,9.27
2023-04-20T16:37:59.446Z,8.82
2023-04-20T16:40:28.482Z,8.75
2023-04-20T16:42:57.411Z,9.10
2023-04-20T16:45:29.734Z,9.20
2023-04-20T16:47:59.040Z,8.35
2023-04-20T16:50:27.621Z,8.82
2023-04-20T16:52:56.100Z,8.77
2023-04-20T16:55:25.841Z,9.43
2023-04-20T16:57:59.700Z,9.38
2023-04-20T17:00:30.115Z,9.23
2023-04-20T17:02:58.983Z,9.48
2023-04-20T17:05:27.571Z,9.98
2023-04-20T17:07:56.098Z,10.52
2023-04-20T17:10:25.175Z,9.35
2023-04-20T17:12:53.697Z,9.90
2023-04-20T17:15:22.366Z,9.23
2023-04-20T17:17:52.206Z,8.77
2023-04-20T17:20:20.979Z,8.90
2023-04-20T17:22:49.377Z,9.85
2023-04-20T17:25:17.795Z,9.18
2023-04-20T17:27:46.597Z,9.20
2023-04-20T17:30:15.507Z,11.35
2023-04-20T17:32:46.314Z,11.30
2023-04-20T17:35:16.282Z,10.00
2023-04-20T17:37:44.730Z,11.35
2023-04-20T17:40:13.390Z,11.32
2023-04-20T17:42:42.259Z,11.77
2023-04-20T17:45:11.051Z,9.80
2023-04-20T17:47:39.735Z,12.15
2023-04-20T17:50:09.010Z,10.10
2023-04-20T17:52:41.267Z,11.38
2023-04-20T17:55:10.290Z,12.48
2023-04-20T17:57:40.046Z,12.75
2023-04-20T18:00:11.561Z,14.32
2023-04-20T18:02:42.884Z,13.50
2023-04-20T18:05:11.592Z,11.10
2023-04-20T18:07:41.366Z,11.40
2023-04-20T18:10:10.525Z,11.20
2023-04-20T18:12:39.007Z,11.00
2023-04-20T18:15:08.546Z,10.60
2023-04-20T18:17:37.237Z,9.55
2023-04-20T18:20:06.874Z,11.00
2023-04-20T18:22:35.438Z,10.25
2023-04-20T18:25:05.468Z,10.07
2023-04-20T18:27:33.872Z,9.70
2023-04-20T18:30:02.386Z,9.98
2023-04-20T18:32:31.445Z,10.48
2023-04-20T18:35:02.167Z,10.55
2023-04-20T18:37:30.616Z,10.73
2023-04-20T18:39:59.718Z,9.93
2023-04-20T18:42:29.556Z,10.70
2023-04-20T18:44:58.014Z,10.68
2023-04-20T18:47:27.098Z,10.60
2023-04-20T18:49:55.579Z,9.98
2023-04-20T18:52:24.391Z,10.88
2023-04-20T18:54:55.408Z,10.90
2023-04-20T18:57:26.496Z,10.55
2023-04-20T18:59:56.579Z,9.93
2023-04-20T19:02:25.360Z,9.82
2023-04-20T19:04:56.294Z,9.82
2023-04-20T19:07:24.862Z,10.82
2023-04-20T19:09:53.312Z,9.50
2023-04-20T19:12:24.058Z,10.60
2023-04-20T19:14:52.475Z,9.32
2023-04-20T19:17:22.290Z,10.30
2023-04-20T19:19:52.589Z,9.25
2023-04-20T19:22:21.101Z,9.32
2023-04-20T19:24:49.541Z,10.13
2023-04-20T19:27:18.296Z,8.95
2023-04-20T19:29:46.835Z,9.15
2023-04-20T19:32:15.289Z,8.98
2023-04-20T19:34:45.101Z,9.77
2023-04-20T19:37:14.096Z,9.88
2023-04-20T19:39:42.518Z,9.60
2023-04-20T19:42:10.940Z,9.38
2023-04-20T19:44:39.345Z,9.60
2023-04-20T19:47:08.149Z,9.38
2023-04-20T19:49:36.615Z,10.13
2023-04-20T19:52:06.427Z,10.13
2023-04-20T19:54:34.916Z,10.02
2023-04-20T19:57:03.851Z,10.40
2023-04-20T19:59:32.661Z,9.23
2023-04-20T20:02:01.268Z,9.20
2023-04-20T20:04:30.024Z,9.68
2023-04-20T20:06:59.141Z,8.70
2023-04-20T20:09:28.877Z,9.25
2023-04-20T20:11:57.318Z,8.85
2023-04-20T20:14:25.768Z,10.00
2023-04-20T20:16:54.229Z,8.95
2023-04-20T20:19:23.131Z,8.77
2023-04-20T20:21:51.672Z,8.73
2023-04-20T20:24:22.784Z,8.40
2023-04-20T20:26:52.853Z,9.30
2023-04-20T20:29:22.880Z,8.43
2023-04-20T20:31:51.484Z,9.45
2023-04-20T20:34:19.999Z,8.10
2023-04-20T20:36:48.553Z,8.63
2023-04-20T20:39:19.628Z,9.18
2023-04-20T20:41:51.317Z,8.68
2023-04-20T20:44:21.176Z,8.82
2023-04-20T20:46:49.726Z,8.63
2023-04-20T20:49:18.541Z,8.55
2023-04-20T20:51:49.497Z,8.18
2023-04-20T20:54:17.900Z,9.02
2023-04-20T20:56:46.546Z,10.00
2023-04-20T20:59:14.961Z,9.68
2023-04-20T21:01:44.935Z,9.82
2023-04-20T21:04:15.972Z,8.82
2023-04-20T21:06:59.586Z,9.40
2023-04-20T21:09:28.023Z,8.00
2023-04-20T21:11:57.606Z,8.80
2023-04-20T21:14:28.417Z,9.10
2023-04-20T21:16:58.341Z,8.10
2023-04-20T21:19:26.917Z,8.02
2023-04-20T21:21:57.863Z,8.13
2023-04-20T21:24:26.548Z,8.32
2023-04-20T21:26:54.957Z,8.07
2023-04-20T21:29:23.469Z,8.63
2023-04-20T21:31:52.720Z,7.95
2023-04-20T21:34:22.774Z,8.25
2023-04-20T21:36:53.546Z,7.43
2023-04-20T21:39:22.104Z,7.63
2023-04-20T21:41:50.557Z,8.80
2023-04-20T21:44:19.022Z,8.27
2023-04-20T21:46:49.908Z,8.10
2023-04-20T21:49:18.651Z,7.63
2023-04-20T21:51:48.754Z,7.45
2023-04-20T21:54:20.577Z,7.82
2023-04-20T21:56:49.042Z,7.38
2023-04-20T21:59:17.668Z,7.22
2023-04-20T22:01:46.226Z,7.60
2023-04-20T22:04:16.612Z,8.25
2023-04-20T22:06:45.620Z,7.75
2023-04-20T22:09:17.969Z,7.28
2023-04-20T22:11:47.774Z,7.95
2023-04-20T22:14:16.880Z,8.40
2023-04-20T22:16:45.451Z,7.25
2023-04-20T22:19:14.048Z,8.52
2023-04-20T22:21:43.065Z,8.02
2023-04-20T22:24:11.687Z,7.25
2023-04-20T22:26:42.162Z,7.60
2023-04-20T22:29:10.960Z,9.77
2023-04-20T22:31:39.438Z,7.70
2023-04-20T22:34:07.867Z,7.57
2023-04-20T22:36:36.321Z,7.38
2023-04-20T22:39:04.836Z,8.43
2023-04-20T22:41:33.343Z,7.65
2023-04-20T22:44:03.180Z,8.00
2023-04-20T22:46:31.675Z,8.68
2023-04-20T22:49:00.123Z,7.22
2023-04-20T22:51:31.805Z,8.23
2023-04-20T22:54:02.694Z,7.90
2023-04-20T22:56:32.025Z,7.70
2023-04-20T22:59:00.426Z,8.20
2023-04-20T23:01:30.301Z,7.80
2023-04-20T23:03:59.139Z,7.65
2023-04-20T23:06:29.656Z,7.22
2023-04-20T23:09:01.442Z,8.05
2023-04-20T23:11:30.182Z,7.60
2023-04-20T23:13:58.960Z,7.97
2023-04-20T23:16:28.161Z,8.30
2023-04-20T23:18:58.032Z,7.85
2023-04-20T23:21:29.691Z,7.05
2023-04-20T23:23:58.285Z,8.02
2023-04-20T23:26:26.963Z,7.53
2023-04-20T23:28:55.610Z,7.78
2023-04-20T23:31:24.090Z,8.32
2023-04-20T23:33:52.591Z,8.23
2023-04-20T23:36:22.324Z,8.68
2023-04-20T23:38:50.804Z,8.13
2023-04-20T23:41:19.238Z,7.75
2023-04-20T23:43:47.886Z,7.78
2023-04-20T23:46:17.168Z,8.13
2023-04-20T23:48:45.747Z,9.05
2023-04-20T23:51:14.214Z,8.35
2023-04-20T23:53:44.040Z,7.50
2023-04-20T23:56:12.648Z,8.32
2023-04-20T23:58:41.048Z,9.15
